createdAt,value
2022-12-08T00:01:53.163Z,14
2022-12-08T00:03:53.125Z,12
2022-12-08T00:05:53.255Z,10
2022-12-08T00:07:53.422Z,12
2022-12-08T00:09:53.498Z,11
2022-12-08T00:11:53.609Z,11
2022-12-08T00:13:53.698Z,10
2022-12-08T00:15:53.822Z,11
2022-12-08T00:17:53.929Z,10
2022-12-08T00:19:54.047Z,11
2022-12-08T00:21:54.135Z,11
2022-12-08T00:23:54.245Z,11
2022-12-08T00:25:54.366Z,10
2022-12-08T00:27:54.477Z,11
2022-12-08T00:31:54.715Z,11
2022-12-08T00:33:54.849Z,11
2022-12-08T00:35:54.885Z,10
2022-12-08T00:38:00.494Z,9
2022-12-08T00:39:55.102Z,10
2022-12-08T00:41:55.191Z,10
2022-12-08T00:45:55.548Z,9
2022-12-08T00:47:55.515Z,9
2022-12-08T00:49:55.655Z,8
2022-12-08T00:51:55.759Z,8
2022-12-08T00:53:55.908Z,8
2022-12-08T00:55:55.984Z,11
2022-12-08T00:57:56.053Z,12
2022-12-08T00:59:56.126Z,17
2022-12-08T01:01:56.214Z,16
2022-12-08T01:03:56.320Z,15
2022-12-08T01:05:56.440Z,15
2022-12-08T01:07:56.555Z,13
2022-12-08T01:09:56.642Z,13
2022-12-08T01:11:56.730Z,13
2022-12-08T01:15:56.912Z,13
2022-12-08T01:17:57.034Z,13
2022-12-08T01:19:57.096Z,13
2022-12-08T01:21:57.199Z,12
2022-12-08T01:23:57.315Z,12
2022-12-08T01:25:57.412Z,14
2022-12-08T01:27:57.541Z,13
2022-12-08T01:29:57.641Z,13
2022-12-08T01:31:57.752Z,14
2022-12-08T01:33:57.830Z,13
2022-12-08T01:35:57.962Z,13
2022-12-08T01:37:58.032Z,12
2022-12-08T01:39:58.137Z,11
2022-12-08T01:41:58.249Z,12
2022-12-08T01:43:58.350Z,11
2022-12-08T01:45:58.635Z,11
2022-12-08T01:47:58.580Z,11
2022-12-08T01:49:58.647Z,11
2022-12-08T01:51:58.772Z,11
2022-12-08T01:55:59.129Z,12
2022-12-08T01:57:59.040Z,12
2022-12-08T01:59:59.126Z,11
2022-12-08T02:01:59.246Z,12
2022-12-08T02:03:59.384Z,11
2022-12-08T02:05:59.434Z,12
2022-12-08T02:07:59.610Z,11
2022-12-08T02:09:59.654Z,12
2022-12-08T02:11:59.751Z,12
2022-12-08T02:13:59.859Z,12
2022-12-08T02:16:00.079Z,11
2022-12-08T02:18:00.006Z,11
2022-12-08T02:20:00.129Z,11
2022-12-08T02:22:00.187Z,12
2022-12-08T02:24:00.304Z,11
2022-12-08T02:26:00.410Z,11
2022-12-08T02:28:00.476Z,10
2022-12-08T02:30:00.769Z,10
2022-12-08T02:32:00.635Z,9
2022-12-08T02:34:00.758Z,9
2022-12-08T02:36:00.827Z,8
2022-12-08T02:38:00.896Z,10
2022-12-08T02:40:01.358Z,9
2022-12-08T02:42:01.095Z,9
2022-12-08T02:44:01.193Z,8
2022-12-08T02:46:01.331Z,9
2022-12-08T02:48:01.363Z,9
2022-12-08T02:50:01.834Z,10
2022-12-08T02:52:01.546Z,11
2022-12-08T02:54:01.769Z,13
2022-12-08T02:56:01.804Z,13
2022-12-08T02:58:01.840Z,12
2022-12-08T03:00:02.629Z,13
2022-12-08T03:02:02.204Z,13
2022-12-08T03:04:02.113Z,11
2022-12-08T03:06:02.216Z,11
2022-12-08T03:08:02.404Z,10
2022-12-08T03:10:02.989Z,14
2022-12-08T03:12:02.491Z,14
2022-12-08T03:14:02.577Z,12
2022-12-08T03:16:02.765Z,11
2022-12-08T03:18:02.797Z,11
2022-12-08T03:20:03.089Z,11
2022-12-08T03:24:03.039Z,12
2022-12-08T03:26:03.147Z,13
2022-12-08T03:28:03.248Z,13
2022-12-08T03:30:03.768Z,12
2022-12-08T03:32:03.460Z,12
2022-12-08T03:34:03.514Z,12
2022-12-08T03:36:03.733Z,11
2022-12-08T03:38:03.760Z,11
2022-12-08T03:40:04.175Z,11
2022-12-08T03:42:03.890Z,13
2022-12-08T03:44:03.975Z,14
2022-12-08T03:46:04.099Z,14
2022-12-08T03:48:04.265Z,13
2022-12-08T03:50:04.583Z,12
2022-12-08T03:54:04.390Z,14
2022-12-08T03:56:04.484Z,17
2022-12-08T03:58:04.644Z,15
2022-12-08T04:00:04.915Z,13
2022-12-08T04:02:04.833Z,12
2022-12-08T04:04:04.871Z,13
2022-12-08T04:06:04.917Z,12
2022-12-08T04:08:05.104Z,12
2022-12-08T04:10:05.531Z,12
2022-12-08T04:14:05.276Z,12
2022-12-08T04:16:05.437Z,12
2022-12-08T04:18:05.417Z,12
2022-12-08T04:20:05.683Z,12
2022-12-08T04:22:05.588Z,12
2022-12-08T04:24:05.667Z,11
2022-12-08T04:26:05.727Z,12
2022-12-08T04:28:35.893Z,13
2022-12-08T04:30:37.816Z,13
2022-12-08T04:32:36.225Z,13
2022-12-08T04:34:36.233Z,14
2022-12-08T04:36:36.334Z,14
2022-12-08T04:38:36.476Z,15
2022-12-08T04:40:36.569Z,16
2022-12-08T04:42:36.676Z,15
2022-12-08T04:44:36.795Z,15
2022-12-08T04:46:43.026Z,16
2022-12-08T04:48:37.012Z,16
2022-12-08T04:50:37.118Z,15
2022-12-08T04:52:37.213Z,15
2022-12-08T04:54:37.344Z,15
2022-12-08T04:56:37.453Z,15
2022-12-08T04:58:37.544Z,15
2022-12-08T05:00:37.671Z,14
2022-12-08T05:02:37.885Z,14
2022-12-08T05:04:37.857Z,15
2022-12-08T05:06:37.973Z,15
2022-12-08T05:08:38.112Z,15
2022-12-08T05:10:38.214Z,15
2022-12-08T05:12:38.313Z,15
2022-12-08T05:14:38.423Z,15
2022-12-08T05:16:38.584Z,15
2022-12-08T05:20:38.990Z,15
2022-12-08T05:22:38.878Z,16
2022-12-08T05:24:43.989Z,17
2022-12-08T05:26:39.084Z,18
2022-12-08T05:28:42.317Z,19
2022-12-08T05:30:39.292Z,23
2022-12-08T05:32:39.389Z,31
2022-12-08T05:34:39.504Z,26
2022-12-08T05:36:39.604Z,25
2022-12-08T05:38:39.744Z,23
2022-12-08T05:40:39.832Z,23
2022-12-08T05:42:39.962Z,22
2022-12-08T05:44:40.061Z,21
2022-12-08T05:46:40.187Z,19
2022-12-08T05:48:40.294Z,20
2022-12-08T05:50:40.400Z,19
2022-12-08T05:52:40.514Z,18
2022-12-08T05:54:40.620Z,18
2022-12-08T05:56:40.719Z,17
2022-12-08T05:58:40.809Z,18
2022-12-08T06:00:40.930Z,17
2022-12-08T06:02:41.245Z,18
2022-12-08T06:04:41.102Z,17
2022-12-08T06:06:41.239Z,16
2022-12-08T06:08:41.329Z,16
2022-12-08T06:12:41.557Z,16
2022-12-08T06:14:41.681Z,16
2022-12-08T06:16:41.826Z,16
2022-12-08T06:20:41.973Z,20
2022-12-08T06:22:42.121Z,26
2022-12-08T06:24:42.202Z,28
2022-12-08T06:26:42.305Z,27
2022-12-08T06:28:42.419Z,28
2022-12-08T06:30:42.501Z,27
2022-12-08T06:32:42.629Z,21
2022-12-08T06:34:42.701Z,22
2022-12-08T06:36:42.833Z,20
2022-12-08T06:38:43.746Z,20
2022-12-08T06:40:43.037Z,21
2022-12-08T06:42:43.182Z,20
2022-12-08T06:44:43.235Z,20
2022-12-08T06:46:43.343Z,19
2022-12-08T06:48:43.438Z,20
2022-12-08T06:50:43.555Z,21
2022-12-08T06:52:55.777Z,20
2022-12-08T06:54:43.773Z,20
2022-12-08T06:56:43.848Z,20
2022-12-08T06:58:50.430Z,20
2022-12-08T07:00:44.245Z,25
2022-12-08T07:02:44.366Z,26
2022-12-08T07:04:44.276Z,31
2022-12-08T07:06:44.355Z,33
2022-12-08T07:08:44.464Z,34
2022-12-08T07:10:44.580Z,31
2022-12-08T07:12:44.682Z,29
2022-12-08T07:14:44.795Z,28
2022-12-08T07:16:44.911Z,26
2022-12-08T07:18:44.943Z,25
2022-12-08T07:20:45.043Z,24
2022-12-08T07:22:45.133Z,25
2022-12-08T07:24:45.254Z,27
2022-12-08T07:26:45.388Z,26
2022-12-08T07:28:45.456Z,33
2022-12-08T07:30:45.601Z,44
2022-12-08T07:32:45.650Z,38
2022-12-08T07:34:47.259Z,34
2022-12-08T07:36:45.848Z,41
2022-12-08T07:38:45.951Z,51
2022-12-08T07:40:46.052Z,60
2022-12-08T07:42:46.128Z,56
2022-12-08T07:44:46.233Z,47
2022-12-08T07:46:46.356Z,42
2022-12-08T07:48:46.434Z,40
2022-12-08T07:50:46.565Z,43
2022-12-08T07:52:46.638Z,42
2022-12-08T07:54:46.769Z,42
2022-12-08T07:56:46.822Z,40
2022-12-08T07:58:46.933Z,40
2022-12-08T08:00:47.108Z,37
2022-12-08T08:02:47.133Z,36
2022-12-08T08:04:47.259Z,35
2022-12-08T08:06:47.277Z,35
2022-12-08T08:08:47.392Z,34
2022-12-08T08:10:47.492Z,34
2022-12-08T08:12:47.577Z,34
2022-12-08T08:16:48.010Z,35
2022-12-08T08:18:47.981Z,35
2022-12-08T08:20:47.985Z,34
2022-12-08T08:22:48.226Z,33
2022-12-08T08:24:48.184Z,34
2022-12-08T08:28:48.382Z,35
2022-12-08T08:30:48.593Z,37
2022-12-08T08:32:48.590Z,36
2022-12-08T08:34:48.680Z,36
2022-12-08T08:36:48.802Z,39
2022-12-08T08:38:48.889Z,40
2022-12-08T08:40:48.960Z,45
2022-12-08T08:42:49.082Z,45
2022-12-08T08:44:49.168Z,48
2022-12-08T08:46:49.329Z,47
2022-12-08T08:48:49.341Z,48
2022-12-08T08:50:49.466Z,48
2022-12-08T08:52:49.513Z,45
2022-12-08T08:54:49.612Z,40
2022-12-08T08:56:49.687Z,40
2022-12-08T08:58:49.791Z,45
2022-12-08T09:00:49.887Z,42
2022-12-08T09:02:49.998Z,43
2022-12-08T09:04:50.151Z,42
2022-12-08T09:06:50.328Z,40
2022-12-08T09:08:50.385Z,39
2022-12-08T09:10:50.492Z,39
2022-12-08T09:12:50.422Z,36
2022-12-08T09:14:50.533Z,35
2022-12-08T09:16:50.683Z,35
2022-12-08T09:18:50.701Z,34
2022-12-08T09:20:50.837Z,36
2022-12-08T09:22:50.904Z,36
2022-12-08T09:24:50.990Z,36
2022-12-08T09:26:51.205Z,37
2022-12-08T09:28:51.169Z,37
2022-12-08T09:30:51.282Z,36
2022-12-08T09:32:51.344Z,37
2022-12-08T09:34:52.400Z,36
2022-12-08T09:36:51.537Z,37
2022-12-08T09:38:51.622Z,37
2022-12-08T09:40:51.718Z,38
2022-12-08T09:42:51.819Z,41
2022-12-08T09:44:51.892Z,40
2022-12-08T09:46:52.174Z,42
2022-12-08T09:48:52.080Z,45
2022-12-08T09:50:52.118Z,43
2022-12-08T09:52:52.250Z,42
2022-12-08T09:54:52.290Z,40
2022-12-08T09:58:52.473Z,39
2022-12-08T10:00:52.581Z,39
2022-12-08T10:02:52.651Z,36
2022-12-08T10:04:52.800Z,38
2022-12-08T10:06:52.833Z,39
2022-12-08T10:08:52.935Z,39
2022-12-08T10:11:23.073Z,38
2022-12-08T10:13:23.160Z,34
2022-12-08T10:15:23.303Z,30
2022-12-08T10:17:23.389Z,29
2022-12-08T10:19:23.495Z,27
2022-12-08T10:21:23.605Z,26
2022-12-08T10:25:23.821Z,25
2022-12-08T10:27:23.951Z,24
2022-12-08T10:29:24.045Z,24
2022-12-08T10:31:24.932Z,24
2022-12-08T10:33:24.275Z,23
2022-12-08T10:35:24.488Z,23
2022-12-08T10:37:24.580Z,24
2022-12-08T10:39:24.585Z,26
2022-12-08T10:41:24.701Z,24
2022-12-08T10:43:24.878Z,26
2022-12-08T10:45:24.942Z,25
2022-12-08T10:47:25.030Z,26
2022-12-08T10:49:25.133Z,25
2022-12-08T10:51:25.384Z,25
2022-12-08T10:53:25.379Z,25
2022-12-08T10:55:25.480Z,23
2022-12-08T10:57:25.608Z,25
2022-12-08T10:59:25.724Z,24
2022-12-08T11:01:25.937Z,23
2022-12-08T11:03:25.891Z,23
2022-12-08T11:05:26.157Z,24
2022-12-08T11:07:26.122Z,23
2022-12-08T11:09:26.236Z,23
2022-12-08T11:11:29.534Z,22
2022-12-08T11:13:26.450Z,23
2022-12-08T11:17:26.636Z,23
2022-12-08T11:19:26.744Z,23
2022-12-08T11:21:26.861Z,23
2022-12-08T11:23:26.956Z,23
2022-12-08T11:25:27.102Z,24
2022-12-08T11:27:27.190Z,24
2022-12-08T11:29:27.298Z,24
2022-12-08T11:31:27.463Z,23
2022-12-08T11:33:27.513Z,24
2022-12-08T11:37:34.325Z,23
2022-12-08T11:39:27.811Z,24
2022-12-08T11:41:27.929Z,23
2022-12-08T11:43:28.039Z,23
2022-12-08T11:45:28.113Z,23
2022-12-08T11:47:28.213Z,20
2022-12-08T11:49:28.315Z,20
2022-12-08T11:51:28.556Z,19
2022-12-08T11:53:28.657Z,20
2022-12-08T11:55:31.233Z,19
2022-12-08T11:57:28.721Z,19
2022-12-08T11:59:28.963Z,19
2022-12-08T12:01:28.912Z,19
2022-12-08T12:03:29.126Z,19
2022-12-08T12:05:47.554Z,18
2022-12-08T12:07:29.221Z,19
2022-12-08T12:09:29.301Z,18
2022-12-08T12:11:29.428Z,19
2022-12-08T12:13:29.647Z,19
2022-12-08T12:15:29.604Z,19
2022-12-08T12:17:29.723Z,20
2022-12-08T12:19:29.781Z,20
2022-12-08T12:21:29.872Z,20
2022-12-08T12:23:29.973Z,20
2022-12-08T12:25:30.057Z,20
2022-12-08T12:27:30.188Z,23
2022-12-08T12:29:30.263Z,22
2022-12-08T12:31:30.363Z,23
2022-12-08T12:33:30.468Z,23
2022-12-08T12:35:30.544Z,24
2022-12-08T12:37:30.677Z,26
2022-12-08T12:39:30.711Z,26
2022-12-08T12:41:30.831Z,24
2022-12-08T12:43:30.923Z,26
2022-12-08T12:45:31.143Z,27
2022-12-08T12:47:31.133Z,26
2022-12-08T12:49:31.203Z,26
2022-12-08T12:51:31.311Z,27
2022-12-08T12:53:31.405Z,26
2022-12-08T12:55:31.479Z,25
2022-12-08T12:57:31.563Z,26
2022-12-08T12:59:31.655Z,29
2022-12-08T13:01:31.762Z,30
2022-12-08T13:03:31.844Z,28
2022-12-08T13:05:32.020Z,27
2022-12-08T13:07:32.017Z,25
2022-12-08T13:09:32.130Z,25
2022-12-08T13:11:32.203Z,26
2022-12-08T13:13:32.256Z,34
2022-12-08T13:15:32.385Z,45
2022-12-08T13:17:32.461Z,47
2022-12-08T13:19:32.533Z,59
2022-12-08T13:21:32.622Z,54
2022-12-08T13:23:32.742Z,61
2022-12-08T13:25:36.796Z,54
2022-12-08T13:27:32.902Z,51
2022-12-08T13:29:32.972Z,52
2022-12-08T13:31:33.185Z,52
2022-12-08T13:33:33.141Z,50
2022-12-08T13:37:33.299Z,54
2022-12-08T13:39:33.365Z,61
2022-12-08T13:41:33.481Z,65
2022-12-08T13:43:43.462Z,71
2022-12-08T13:46:18.332Z,81
2022-12-08T13:47:34.696Z,72
2022-12-08T13:58:04.335Z,47
2022-12-08T14:00:04.364Z,42
2022-12-08T14:02:04.780Z,42
2022-12-08T14:04:34.170Z,37
2022-12-08T14:06:13.244Z,39
2022-12-08T14:08:04.940Z,41
2022-12-08T14:10:04.894Z,42
2022-12-08T14:12:05.079Z,52
2022-12-08T14:14:05.113Z,193
2022-12-08T14:16:05.691Z,128
2022-12-08T14:18:05.329Z,94
2022-12-08T14:20:05.546Z,150
2022-12-08T14:22:05.530Z,224
2022-12-08T14:24:05.630Z,255
2022-12-08T14:26:05.750Z,242
2022-12-08T14:28:05.830Z,258
2022-12-08T14:30:05.923Z,178
2022-12-08T14:32:06.040Z,138
2022-12-08T14:34:06.508Z,134
2022-12-08T14:36:06.262Z,143
2022-12-08T14:38:06.805Z,148
2022-12-08T14:40:06.676Z,153
2022-12-08T14:42:06.588Z,179
2022-12-08T14:44:06.661Z,151
2022-12-08T14:46:06.853Z,148
2022-12-08T14:48:06.996Z,147
2022-12-08T14:50:07.865Z,132
2022-12-08T14:52:07.007Z,117
2022-12-08T14:54:07.227Z,145
2022-12-08T14:56:07.252Z,189
2022-12-08T14:58:07.345Z,157
2022-12-08T15:00:08.359Z,123
2022-12-08T15:02:07.606Z,85
2022-12-08T15:04:08.043Z,95
2022-12-08T15:06:07.802Z,104
2022-12-08T15:08:08.435Z,101
2022-12-08T15:10:08.477Z,91
2022-12-08T15:12:08.044Z,89
2022-12-08T15:14:08.146Z,94
2022-12-08T15:16:08.315Z,95
2022-12-08T15:18:08.418Z,93
2022-12-08T15:20:08.759Z,87
2022-12-08T15:22:08.649Z,118
2022-12-08T15:24:08.607Z,107
2022-12-08T15:26:08.679Z,83
2022-12-08T15:28:08.774Z,88
2022-12-08T15:30:09.212Z,73
2022-12-08T15:32:09.163Z,87
2022-12-08T15:34:09.081Z,125
2022-12-08T15:36:11.098Z,94
2022-12-08T15:38:09.595Z,72
2022-12-08T15:40:09.648Z,64
2022-12-08T15:42:09.567Z,67
2022-12-08T15:44:09.641Z,58
2022-12-08T15:46:09.907Z,71
2022-12-08T15:48:09.845Z,62
2022-12-08T15:50:10.087Z,59
2022-12-08T15:52:11.778Z,44
2022-12-08T15:54:10.094Z,41
2022-12-08T15:56:28.703Z,48
2022-12-08T15:58:52.536Z,44
2022-12-08T16:00:24.547Z,43
2022-12-08T16:02:10.455Z,41
2022-12-08T16:05:25.241Z,32
2022-12-08T16:06:57.503Z,29
2022-12-08T16:08:30.176Z,30
2022-12-08T16:10:11.278Z,40
2022-12-08T16:12:11.118Z,30
2022-12-08T16:14:47.419Z,28
2022-12-08T16:16:11.219Z,45
2022-12-08T16:18:11.122Z,56
2022-12-08T16:20:11.237Z,49
2022-12-08T16:24:11.409Z,34
2022-12-08T16:26:44.230Z,29
2022-12-08T16:28:51.736Z,38
2022-12-08T16:30:11.712Z,42
2022-12-08T16:32:11.813Z,38
2022-12-08T16:34:11.889Z,45
2022-12-08T16:36:11.977Z,55
2022-12-08T16:38:12.948Z,48
2022-12-08T16:40:12.194Z,45
2022-12-08T16:42:13.440Z,49
2022-12-08T16:44:12.336Z,67
2022-12-08T16:46:12.437Z,66
2022-12-08T16:48:12.497Z,70
2022-12-08T16:50:12.659Z,76
2022-12-08T16:52:12.680Z,81
2022-12-08T16:54:12.804Z,83
2022-12-08T16:56:12.865Z,82
2022-12-08T16:58:13.122Z,83
2022-12-08T17:00:13.134Z,73
2022-12-08T17:02:16.421Z,80
2022-12-08T17:04:31.517Z,59
2022-12-08T17:06:13.293Z,48
2022-12-08T17:08:13.457Z,85
2022-12-08T17:10:13.469Z,51
2022-12-08T17:12:13.591Z,55
2022-12-08T17:14:15.668Z,59
2022-12-08T17:16:13.880Z,57
2022-12-08T17:18:13.852Z,59
2022-12-08T17:20:13.970Z,62
2022-12-08T17:22:14.824Z,66
2022-12-08T17:24:18.597Z,74
2022-12-08T17:26:14.325Z,76
2022-12-08T17:28:22.464Z,80
2022-12-08T17:30:15.234Z,64
2022-12-08T17:32:14.501Z,58
2022-12-08T17:34:14.498Z,52
2022-12-08T17:36:14.591Z,49
2022-12-08T17:38:14.652Z,50
2022-12-08T17:40:14.743Z,51
2022-12-08T17:42:44.855Z,56
2022-12-08T17:44:44.999Z,57
2022-12-08T17:46:50.671Z,59
2022-12-08T17:48:45.175Z,67
2022-12-08T17:50:45.433Z,74
2022-12-08T17:52:45.389Z,73
2022-12-08T17:54:45.512Z,70
2022-12-08T17:56:45.635Z,69
2022-12-08T17:58:48.550Z,66
2022-12-08T18:00:45.870Z,67
2022-12-08T18:02:46.042Z,60
2022-12-08T18:04:46.230Z,58
2022-12-08T18:06:46.340Z,61
2022-12-08T18:08:46.474Z,65
2022-12-08T18:10:47.040Z,84
2022-12-08T18:12:46.527Z,63
2022-12-08T18:14:46.646Z,73
2022-12-08T18:16:46.965Z,65
2022-12-08T18:18:46.876Z,56
2022-12-08T18:20:46.976Z,64
2022-12-08T18:22:47.077Z,58
2022-12-08T18:24:47.205Z,57
2022-12-08T18:26:47.295Z,55
2022-12-08T18:30:47.698Z,55
2022-12-08T18:32:47.619Z,54
2022-12-08T18:34:47.704Z,55
2022-12-08T18:36:47.798Z,56
2022-12-08T18:38:47.885Z,60
2022-12-08T18:40:47.994Z,72
2022-12-08T18:42:48.128Z,76
2022-12-08T18:44:48.192Z,77
2022-12-08T18:46:48.315Z,78
2022-12-08T18:48:48.440Z,80
2022-12-08T18:50:48.678Z,80
2022-12-08T18:52:48.655Z,79
2022-12-08T18:55:05.664Z,85
2022-12-08T18:56:48.962Z,81
2022-12-08T18:58:48.957Z,79
2022-12-08T19:00:49.055Z,102
2022-12-08T19:02:49.269Z,62
2022-12-08T19:04:49.275Z,59
2022-12-08T19:06:49.379Z,62
2022-12-08T19:08:49.508Z,74
2022-12-08T19:10:49.620Z,63
2022-12-08T19:12:49.720Z,62
2022-12-08T19:14:49.960Z,64
2022-12-08T19:16:49.941Z,69
2022-12-08T19:18:50.170Z,87
2022-12-08T19:20:50.114Z,85
2022-12-08T19:22:50.237Z,100
2022-12-08T19:24:50.346Z,99
2022-12-08T19:26:50.415Z,114
2022-12-08T19:28:50.562Z,119
2022-12-08T19:30:50.768Z,120
2022-12-08T19:32:50.758Z,134
2022-12-08T19:34:50.870Z,115
2022-12-08T19:36:51.063Z,106
2022-12-08T19:38:51.054Z,96
2022-12-08T19:40:51.181Z,94
2022-12-08T19:42:51.397Z,96
2022-12-08T19:44:51.402Z,98
2022-12-08T19:46:51.530Z,81
2022-12-08T19:48:51.683Z,69
2022-12-08T19:50:51.757Z,68
2022-12-08T19:52:51.778Z,71
2022-12-08T19:54:51.880Z,66
2022-12-08T19:56:52.065Z,76
2022-12-08T19:58:58.951Z,84
2022-12-08T20:00:52.117Z,92
2022-12-08T20:02:52.303Z,90
2022-12-08T20:04:52.474Z,72
2022-12-08T20:06:52.591Z,64
2022-12-08T20:08:52.848Z,61
2022-12-08T20:10:52.786Z,59
2022-12-08T20:12:52.854Z,42
2022-12-08T20:14:52.983Z,47
2022-12-08T20:16:53.004Z,54
2022-12-08T20:18:53.209Z,50
2022-12-08T20:20:53.158Z,55
2022-12-08T20:22:53.363Z,50
2022-12-08T20:24:58.418Z,57
2022-12-08T20:26:53.435Z,53
2022-12-08T20:28:53.544Z,86
2022-12-08T20:30:53.677Z,99
2022-12-08T20:32:53.886Z,86
2022-12-08T20:34:53.845Z,73
2022-12-08T20:36:53.925Z,88
2022-12-08T20:38:54.235Z,106
2022-12-08T20:40:54.173Z,115
2022-12-08T20:42:54.297Z,131
2022-12-08T20:44:54.369Z,120
2022-12-08T20:46:54.654Z,93
2022-12-08T20:48:54.761Z,85
2022-12-08T20:50:54.745Z,91
2022-12-08T20:52:54.855Z,95
2022-12-08T20:54:54.898Z,73
2022-12-08T20:56:55.029Z,62
2022-12-08T20:58:55.113Z,59
2022-12-08T21:00:55.184Z,58
2022-12-08T21:02:57.087Z,60
2022-12-08T21:04:55.472Z,59
2022-12-08T21:06:55.441Z,58
2022-12-08T21:08:55.887Z,59
2022-12-08T21:10:55.775Z,58
2022-12-08T21:12:55.817Z,59
2022-12-08T21:14:55.796Z,54
2022-12-08T21:16:56.197Z,50
2022-12-08T21:18:56.006Z,44
2022-12-08T21:20:56.090Z,46
2022-12-08T21:22:56.360Z,44
2022-12-08T21:24:56.351Z,43
2022-12-08T21:26:56.301Z,41
2022-12-08T21:28:56.479Z,40
2022-12-08T21:30:56.888Z,37
2022-12-08T21:32:56.868Z,36
2022-12-08T21:34:59.283Z,38
2022-12-08T21:36:56.865Z,36
2022-12-08T21:38:57.191Z,34
2022-12-08T21:40:57.628Z,33
2022-12-08T21:42:57.302Z,29
2022-12-08T21:44:57.287Z,31
2022-12-08T21:46:57.267Z,26
2022-12-08T21:48:57.468Z,24
2022-12-08T21:50:57.492Z,24
2022-12-08T21:52:57.461Z,24
2022-12-08T21:54:57.755Z,23
2022-12-08T21:56:57.763Z,22
2022-12-08T21:58:57.768Z,19
2022-12-08T22:00:57.975Z,21
2022-12-08T22:02:58.266Z,23
2022-12-08T22:04:58.368Z,29
2022-12-08T22:06:58.422Z,30
2022-12-08T22:08:58.323Z,28
2022-12-08T22:10:58.644Z,28
2022-12-08T22:12:58.510Z,44
2022-12-08T22:14:58.504Z,47
2022-12-08T22:16:58.737Z,46
2022-12-08T22:18:58.827Z,41
2022-12-08T22:23:28.926Z,28
2022-12-08T22:25:29.143Z,25
2022-12-08T22:27:29.084Z,24
2022-12-08T22:29:29.313Z,28
2022-12-08T22:31:29.482Z,27
2022-12-08T22:33:29.457Z,26
2022-12-08T22:35:29.614Z,23
2022-12-08T22:37:29.737Z,23
2022-12-08T22:39:29.785Z,21
2022-12-08T22:41:30.019Z,23
2022-12-08T22:43:30.115Z,23
2022-12-08T22:45:30.580Z,24
2022-12-08T22:47:30.356Z,23
2022-12-08T22:49:30.360Z,21
2022-12-08T22:51:30.470Z,22
2022-12-08T22:53:30.566Z,23
2022-12-08T22:55:30.688Z,24
2022-12-08T22:57:30.937Z,26
2022-12-08T22:59:30.940Z,59
2022-12-08T23:01:31.406Z,82
2022-12-08T23:03:31.396Z,92
2022-12-08T23:05:31.341Z,89
2022-12-08T23:07:31.376Z,79
2022-12-08T23:09:31.705Z,81
2022-12-08T23:11:31.825Z,74
2022-12-08T23:13:31.952Z,65
2022-12-08T23:15:31.820Z,65
2022-12-08T23:21:32.208Z,63
2022-12-08T23:23:32.373Z,64
2022-12-08T23:25:32.593Z,62
2022-12-08T23:27:32.599Z,62
2022-12-08T23:29:32.935Z,60
2022-12-08T23:31:33.585Z,61
2022-12-08T23:33:32.799Z,60
2022-12-08T23:35:33.164Z,55
2022-12-08T23:37:33.065Z,56
2022-12-08T23:39:33.378Z,55
2022-12-08T23:41:33.364Z,52
2022-12-08T23:43:33.394Z,55
2022-12-08T23:45:33.589Z,59
2022-12-08T23:47:33.618Z,53
2022-12-08T23:49:33.883Z,38
2022-12-08T23:51:33.910Z,36
2022-12-08T23:53:34.068Z,26
2022-12-08T23:55:33.980Z,28
2022-12-08T23:57:34.273Z,30
2022-12-08T23:59:34.336Z,31
